Time;durP1;ratioP1;P1;durP2;ratioP2;P2;SDS_P1;SDS_P2;PMS_P1;PMS_P2;Temp;Humidity;BMP_temperature;BMP_pressure;BME280_temperature;BME280_humidity;BME280_pressure;Samples;Min_cycle;Max_cycle;Signal;HPM_P1;HPM_P2
2022/07/26 00:01:09;;;;;;;4.90;4.60;;;19.60;68.40;;;;;;2613819;54;20147;-76
2022/07/26 00:06:57;;;;;;;5.30;4.93;;;19.50;70.90;;;;;;2615010;54;20166;-75
2022/07/26 00:12:45;;;;;;;8.90;4.77;;;19.50;74.00;;;;;;2615177;54;20164;-75
2022/07/26 00:18:32;;;;;;;8.10;6.00;;;19.30;79.20;;;;;;2614015;54;20673;-75
2022/07/26 00:24:20;;;;;;;6.80;5.00;;;19.20;85.70;;;;;;2614733;54;20129;-74
2022/07/26 00:30:09;;;;;;;5.17;4.80;;;19.10;90.00;;;;;;2614058;54;20655;-74
2022/07/26 00:35:57;;;;;;;8.43;5.07;;;18.90;92.40;;;;;;2614480;31;20830;-75
2022/07/26 00:41:45;;;;;;;6.83;5.67;;;18.80;94.80;;;;;;2615193;54;20150;-75
2022/07/26 00:47:33;;;;;;;5.23;4.83;;;18.70;96.40;;;;;;2614142;54;20143;-76
2022/07/26 00:53:22;;;;;;;5.20;4.70;;;18.70;98.10;;;;;;2614919;54;20489;-75
2022/07/26 00:59:09;;;;;;;6.33;5.33;;;18.50;99.90;;;;;;2614685;54;20388;-76
2022/07/26 01:04:57;;;;;;;7.87;5.77;;;18.60;99.90;;;;;;2614941;54;20135;-76
2022/07/26 01:10:46;;;;;;;5.87;5.43;;;18.60;99.90;;;;;;2614782;54;20132;-75
2022/07/26 01:16:33;;;;;;;6.57;6.00;;;18.40;99.90;;;;;;2614457;54;20433;-75
2022/07/26 01:22:21;;;;;;;8.47;6.47;;;18.40;99.90;;;;;;2614637;54;20249;-75
2022/07/26 01:28:09;;;;;;;5.83;5.43;;;18.50;99.90;;;;;;2615415;54;20128;-75
2022/07/26 01:33:57;;;;;;;6.17;5.57;;;18.50;99.90;;;;;;2614395;54;20643;-75
2022/07/26 01:39:45;;;;;;;5.63;5.00;;;18.60;99.90;;;;;;2615362;54;20162;-75
2022/07/26 01:45:32;;;;;;;6.70;6.20;;;18.70;99.90;;;;;;2615464;54;20124;-75
2022/07/26 01:51:20;;;;;;;6.10;5.50;;;18.70;99.90;;;;;;2614584;54;20127;-75
2022/07/26 01:57:07;;;;;;;5.63;5.13;;;18.60;99.90;;;;;;2615181;54;20158;-75
2022/07/26 02:02:55;;;;;;;6.80;5.20;;;18.60;99.90;;;;;;2614775;54;20132;-75
2022/07/26 02:08:43;;;;;;;7.43;4.50;;;18.60;99.90;;;;;;2615146;54;20154;-75
2022/07/26 02:14:31;;;;;;;5.03;4.63;;;18.60;99.90;;;;;;2615946;39;20632;-75
2022/07/26 02:23:44;;;;;;;6.93;5.30;;;18.60;99.90;;;;;;2614023;54;20550;-75
2022/07/26 02:29:31;;;;;;;9.23;5.60;;;18.50;99.90;;;;;;2614975;54;20402;-75
2022/07/26 02:35:19;;;;;;;12.03;5.53;;;18.60;99.90;;;;;;2614808;54;20185;-75
2022/07/26 02:41:07;;;;;;;7.30;6.60;;;18.50;99.90;;;;;;2615161;54;20411;-75
2022/07/26 02:46:55;;;;;;;6.73;6.17;;;18.50;99.90;;;;;;2613775;39;20541;-74
2022/07/26 02:52:43;;;;;;;6.40;5.13;;;18.50;99.90;;;;;;2615790;54;20433;-75
2022/07/26 02:58:30;;;;;;;5.60;5.10;;;18.50;99.90;;;;;;2614482;39;20549;-75
2022/07/26 03:04:18;;;;;;;4.83;4.43;;;18.50;99.90;;;;;;2615010;54;20136;-76
2022/07/26 03:10:07;;;;;;;5.47;4.87;;;18.50;99.90;;;;;;2614332;54;20145;-76
2022/07/26 03:15:54;;;;;;;7.50;5.07;;;18.30;99.90;;;;;;2615946;31;20833;-76
2022/07/26 03:19:16;;;;;;;5.77;4.40;;;18.30;99.90;;;;;;2614650;54;20408;-76
2022/07/26 03:21:41;;;;;;;6.47;5.33;;;18.40;99.90;;;;;;2613489;47;20170;-76
2022/07/26 03:27:29;;;;;;;6.30;4.57;;;18.40;99.90;;;;;;2614282;54;20132;-76
2022/07/26 03:33:17;;;;;;;9.27;5.20;;;18.20;99.90;;;;;;2614364;54;20764;-76
2022/07/26 03:39:05;;;;;;;8.10;4.93;;;18.30;99.90;;;;;;2614576;54;20125;-76
2022/07/26 03:44:52;;;;;;;9.40;5.23;;;18.20;99.90;;;;;;2615045;54;20397;-76
2022/07/26 03:50:41;;;;;;;9.93;5.90;;;18.20;99.90;;;;;;2613852;54;20154;-75
2022/07/26 03:56:32;;;;;;;13.23;6.43;;;18.10;99.90;;;;;;2615249;54;20440;-76
2022/07/26 04:02:19;;;;;;;13.20;6.87;;;17.70;99.90;;;;;;2614427;54;20432;-76
2022/07/26 04:08:07;;;;;;;10.40;7.73;;;17.40;99.90;;;;;;2614116;54;20136;-76
2022/07/26 04:13:56;;;;;;;20.23;18.13;;;17.30;99.90;;;;;;2614915;54;20180;-77
2022/07/26 04:23:49;;;;;;;17.73;16.40;;;17.10;99.90;;;;;;2614507;54;20369;-77
2022/07/26 04:29:37;;;;;;;17.30;16.03;;;17.00;99.90;;;;;;2614860;54;20423;-78
2022/07/26 04:35:25;;;;;;;18.83;17.20;;;17.10;99.90;;;;;;2614823;54;20127;-78
2022/07/26 04:41:13;;;;;;;20.37;18.00;;;17.10;99.90;;;;;;2614740;54;20151;-77
2022/07/26 04:47:01;;;;;;;18.27;11.60;;;17.00;99.90;;;;;;2615428;39;20539;-77
2022/07/26 04:52:50;;;;;;;11.40;10.30;;;17.00;99.90;;;;;;2611843;54;20492;-77
2022/07/26 04:58:38;;;;;;;17.57;10.33;;;16.90;99.90;;;;;;2613901;54;20424;-79
2022/07/26 05:04:26;;;;;;;11.20;10.20;;;16.90;99.90;;;;;;2615493;54;20159;-78
2022/07/26 05:10:14;;;;;;;15.33;10.00;;;17.00;99.90;;;;;;2615517;54;20144;-78
2022/07/26 05:16:02;;;;;;;11.30;9.70;;;17.00;99.90;;;;;;2614076;54;20353;-78
2022/07/26 05:22:00;;;;;;;9.63;8.10;;;17.00;99.90;;;;;;2611723;54;20154;-77
2022/07/26 05:27:48;;;;;;;10.53;9.43;;;17.10;99.90;;;;;;2612567;54;20179;-78
2022/07/26 05:30:51;;;;;;;13.60;8.50;;;17.10;99.90;;;;;;2611207;54;21018;-77
2022/07/26 05:33:16;;;;;;;10.10;9.07;;;17.10;99.90;;;;;;2611787;54;20157;-79
2022/07/26 05:39:04;;;;;;;11.30;8.00;;;17.30;99.90;;;;;;2610290;54;20128;-79
2022/07/26 05:44:51;;;;;;;9.30;6.93;;;17.40;99.90;;;;;;2613072;54;20675;-80
2022/07/26 05:50:38;;;;;;;14.20;6.80;;;17.50;99.90;;;;;;2613649;54;20133;-79
2022/07/26 05:56:25;;;;;;;12.20;6.93;;;17.70;99.90;;;;;;2612387;54;20229;-79
2022/07/26 06:02:13;;;;;;;13.57;7.27;;;17.70;99.90;;;;;;2614172;54;20245;-78
2022/07/26 06:08:02;;;;;;;7.13;6.40;;;18.10;99.90;;;;;;2614803;39;20270;-79
2022/07/26 06:13:50;;;;;;;13.97;7.23;;;18.00;99.90;;;;;;2615966;54;20419;-78
2022/07/26 06:23:50;;;;;;;9.43;7.63;;;18.10;99.90;;;;;;2615142;54;20426;-78
2022/07/26 06:29:39;;;;;;;11.00;7.20;;;18.40;99.90;;;;;;2615799;54;20394;-79
2022/07/26 06:35:34;;;;;;;14.70;8.50;;;18.40;99.90;;;;;;2615299;54;20403;-78
2022/07/26 06:41:22;;;;;;;14.20;8.23;;;18.70;99.90;;;;;;2614419;54;21011;-78
2022/07/26 06:47:09;;;;;;;13.47;7.60;;;18.60;99.90;;;;;;2616362;39;20534;-78
2022/07/26 06:52:57;;;;;;;17.80;8.87;;;19.00;99.90;;;;;;2615939;54;20210;-78
2022/07/26 06:58:45;;;;;;;13.13;8.50;;;19.20;99.90;;;;;;2615988;39;20546;-77
2022/07/26 07:04:33;;;;;;;11.83;8.17;;;18.90;99.90;;;;;;2615189;54;20422;-77
2022/07/26 07:10:21;;;;;;;11.70;7.90;;;19.10;99.90;;;;;;2613800;54;20405;-78
2022/07/26 07:16:08;;;;;;;19.70;12.40;;;19.10;99.90;;;;;;2612234;39;20520;-78
2022/07/26 07:19:18;;;;;;;16.87;11.77;;;19.30;99.90;;;;;;2613863;54;20537;-78
2022/07/26 07:21:43;;;;;;;11.90;10.70;;;19.80;99.90;;;;;;2615189;54;20265;-77
2022/07/26 07:27:31;;;;;;;15.80;11.30;;;21.20;99.90;;;;;;2613905;54;20141;-77
2022/07/26 07:33:19;;;;;;;11.90;9.27;;;20.60;99.90;;;;;;2615103;54;20174;-77
2022/07/26 07:39:06;;;;;;;13.80;8.87;;;20.10;99.90;;;;;;2613562;54;20783;-78
2022/07/26 07:44:54;;;;;;;14.40;8.03;;;19.90;99.90;;;;;;2612925;39;20692;-77
2022/07/26 07:50:42;;;;;;;14.30;8.63;;;19.70;99.90;;;;;;2615329;54;20182;-77
2022/07/26 07:56:30;;;;;;;13.67;8.50;;;20.00;99.90;;;;;;2612716;54;20647;-78
2022/07/26 08:02:18;;;;;;;10.67;8.00;;;19.90;99.90;;;;;;2614454;54;20138;-77
2022/07/26 08:08:05;;;;;;;12.63;8.60;;;20.40;99.90;;;;;;2615081;54;20481;-78
2022/07/26 08:13:53;;;;;;;8.83;8.03;;;20.90;99.90;;;;;;2615937;39;20618;-78
2022/07/26 08:23:47;;;;;;;11.73;7.57;;;21.20;99.90;;;;;;2613987;54;20381;-77
2022/07/26 08:29:35;;;;;;;11.20;8.10;;;21.50;99.90;;;;;;2614976;54;20503;-77
2022/07/26 08:35:22;;;;;;;18.20;8.23;;;21.60;99.90;;;;;;2614932;54;20123;-77
2022/07/26 08:41:10;;;;;;;9.57;8.50;;;21.10;99.90;;;;;;2614809;54;20144;-77
2022/07/26 08:46:58;;;;;;;9.03;8.33;;;20.70;99.90;;;;;;2615202;54;20158;-77
2022/07/26 08:52:46;;;;;;;9.30;8.40;;;20.40;99.90;;;;;;2613887;54;20125;-77
2022/07/26 08:58:35;;;;;;;13.03;7.87;;;20.30;99.90;;;;;;2614689;54;20409;-78
2022/07/26 09:04:25;;;;;;;8.80;7.93;;;20.60;99.90;;;;;;2611240;54;20428;-77
2022/07/26 09:10:14;;;;;;;9.03;6.60;;;21.20;99.90;;;;;;2615250;54;20391;-77
2022/07/26 09:16:09;;;;;;;9.30;7.10;;;22.70;99.10;;;;;;2613643;54;20394;-78
2022/07/26 09:19:16;;;;;;;8.17;7.40;;;22.90;90.90;;;;;;2612118;54;20443;-78
2022/07/26 09:21:42;;;;;;;7.83;7.30;;;22.70;83.90;;;;;;2613068;47;20543;-78
2022/07/26 09:27:35;;;;;;;9.30;7.60;;;22.20;88.80;;;;;;2613942;54;20503;-77
2022/07/26 09:33:24;;;;;;;8.47;7.27;;;21.80;95.60;;;;;;2614751;54;20367;-78
2022/07/26 09:39:11;;;;;;;9.13;8.10;;;21.50;92.40;;;;;;2615500;39;20707;-77
2022/07/26 09:44:59;;;;;;;10.07;9.23;;;21.20;91.10;;;;;;2613980;54;20253;-77
2022/07/26 09:50:49;;;;;;;10.30;9.50;;;23.00;56.60;;;;;;2610835;54;20419;-79
2022/07/26 09:56:47;;;;;;;15.47;9.70;;;23.50;50.10;;;;;;2615644;54;20415;-77
2022/07/26 10:02:34;;;;;;;12.10;11.20;;;23.10;49.10;;;;;;2616300;54;20917;-77
2022/07/26 10:08:22;;;;;;;12.40;11.40;;;22.90;54.80;;;;;;2616404;54;20161;-76
2022/07/26 10:14:32;;;;;;;12.80;11.70;;;23.50;40.50;;;;;;2616309;39;20209;-78
2022/07/26 10:23:50;;;;;;;15.03;13.83;;;23.10;30.50;;;;;;2615971;54;20387;-77
2022/07/26 10:29:38;;;;;;;14.30;13.40;;;22.20;36.90;;;;;;2614231;54;20448;-77
2022/07/26 10:35:37;;;;;;;8.50;7.90;;;21.70;80.00;;;;;;2615648;54;20155;-77
2022/07/26 10:41:37;;;;;;;10.60;9.90;;;20.90;99.90;;;;;;2615334;54;20425;-77
2022/07/26 10:47:25;;;;;;;7.53;6.77;;;20.90;99.90;;;;;;2614733;54;20387;-77
2022/07/26 10:53:24;;;;;;;6.20;5.80;;;21.70;97.00;;;;;;2615617;54;20267;-78
2022/07/26 10:59:12;;;;;;;7.70;7.20;;;21.80;85.50;;;;;;2615537;54;20411;-76
2022/07/26 11:05:04;;;;;;;6.17;5.67;;;22.50;93.60;;;;;;2614430;54;20238;-77
2022/07/26 11:10:51;;;;;;;6.70;6.30;;;24.00;63.10;;;;;;2610838;54;20448;-77
2022/07/26 11:16:42;;;;;;;6.20;5.90;;;24.10;50.30;;;;;;2614064;54;20124;-77
2022/07/26 11:22:35;;;;;;;5.27;4.93;;;21.80;90.20;;;;;;2615787;54;20560;-77
2022/07/26 11:28:23;;;;;;;76.27;16.13;;;22.40;96.20;;;;;;2612925;54;20945;-77
2022/07/26 11:34:20;;;;;;;5.50;5.10;;;23.10;90.20;;;;;;2614483;54;20185;-76
2022/07/26 11:40:09;;;;;;;5.20;4.80;;;22.80;93.00;;;;;;2612830;54;20413;-77
2022/07/26 11:45:56;;;;;;;4.90;4.70;;;22.20;99.60;;;;;;2612610;54;20995;-77
2022/07/26 11:58:25;;;;;;;5.00;4.70;;;23.90;76.00;;;;;;2608784;54;20438;-77
2022/07/26 12:04:21;;;;;;;5.73;5.30;;;24.60;38.20;;;;;;2611151;54;20384;-78
2022/07/26 12:10:15;;;;;;;4.77;4.57;;;24.80;33.10;;;;;;2610781;54;20384;-78
2022/07/26 12:16:02;;;;;;;4.90;4.70;;;23.90;38.20;;;;;;2613260;54;20426;-78
2022/07/26 12:19:17;;;;;;;5.77;5.47;;;24.00;37.10;;;;;;2612362;54;20508;-78
2022/07/26 12:21:44;;;;;;;5.20;5.00;;;24.50;32.70;;;;;;2612636;54;20184;-78
2022/07/26 12:27:32;;;;;;;5.50;5.20;;;23.60;43.40;;;;;;2613041;54;20415;-77
2022/07/26 12:33:19;;;;;;;33.03;30.60;;;23.50;42.10;;;;;;2615389;54;20383;-77
2022/07/26 12:45:43;;;;;;;5.80;5.30;;;23.90;38.50;;;;;;2613236;54;20419;-77
2022/07/26 12:51:31;;;;;;;58.77;53.83;;;23.20;35.50;;;;;;2614201;54;20182;-77
2022/07/26 12:57:20;;;;;;;15.77;14.67;;;23.80;32.70;;;;;;2611936;54;20174;-76
2022/07/26 13:03:07;;;;;;;12.23;11.47;;;24.10;29.00;;;;;;2614715;31;20982;-75
2022/07/26 13:08:55;;;;;;;14.93;13.97;;;22.20;52.30;;;;;;2615396;54;20251;-76
2022/07/26 13:14:43;;;;;;;6.07;5.77;;;22.80;50.80;;;;;;2612800;54;20679;-77
2022/07/26 13:24:05;;;;;;;5.30;5.10;;;23.40;40.20;;;;;;2613133;54;20498;-77
2022/07/26 13:29:53;;;;;;;5.10;4.90;;;24.70;26.10;;;;;;2614627;54;20383;-78
2022/07/26 13:35:41;;;;;;;5.57;5.37;;;23.70;23.30;;;;;;2613980;54;20163;-78
2022/07/26 13:41:30;;;;;;;9.83;8.93;;;23.60;32.40;;;;;;2614664;39;20635;-78
2022/07/26 13:47:18;;;;;;;6.73;6.33;;;25.20;23.90;;;;;;2613109;54;20506;-78
2022/07/26 13:53:05;;;;;;;5.77;5.50;;;24.40;21.10;;;;;;2614555;54;20154;-78
2022/07/26 13:58:53;;;;;;;5.57;5.27;;;25.00;19.50;;;;;;2615274;54;20126;-77
2022/07/26 14:04:41;;;;;;;5.90;5.53;;;23.10;23.70;;;;;;2615198;39;20534;-78
2022/07/26 14:10:29;;;;;;;5.70;5.20;;;23.50;32.20;;;;;;2614891;54;20122;-77
2022/07/26 14:16:16;;;;;;;5.90;5.67;;;23.20;34.40;;;;;;2613410;54;20126;-75
2022/07/26 14:19:32;;;;;;;5.70;5.40;;;23.40;31.10;;;;;;2613943;54;20507;-77
2022/07/26 14:21:58;;;;;;;6.23;5.93;;;22.70;40.50;;;;;;2615376;46;20818;-78
2022/07/26 14:27:45;;;;;;;5.50;5.10;;;22.00;50.60;;;;;;2613412;54;20134;-77
2022/07/26 14:33:33;;;;;;;6.63;4.60;;;22.20;49.60;;;;;;2610437;54;20154;-77
2022/07/26 14:39:21;;;;;;;5.73;5.43;;;22.40;55.80;;;;;;2613339;54;20130;-77
2022/07/26 14:45:10;;;;;;;6.07;5.67;;;22.10;56.40;;;;;;2616215;54;20237;-77
2022/07/26 14:50:58;;;;;;;6.07;5.77;;;22.00;45.10;;;;;;2615770;54;20368;-77
2022/07/26 14:56:46;;;;;;;5.50;5.10;;;21.60;50.00;;;;;;2615147;54;20125;-77
2022/07/26 15:02:36;;;;;;;5.63;5.30;;;21.20;56.20;;;;;;2615023;54;20370;-76
2022/07/26 15:08:23;;;;;;;5.90;5.50;;;21.10;61.80;;;;;;2615700;54;20492;-77
2022/07/26 15:14:11;;;;;;;4.40;4.17;;;21.10;62.50;;;;;;2614373;54;20146;-77
2022/07/26 15:24:06;;;;;;;4.10;3.90;;;20.90;52.40;;;;;;2617027;54;20395;-76
2022/07/26 15:29:53;;;;;;;4.40;4.20;;;21.50;46.70;;;;;;2612739;54;20933;-76
2022/07/26 15:35:42;;;;;;;4.70;4.30;;;22.20;31.90;;;;;;2614574;54;20161;-76
2022/07/26 15:41:30;;;;;;;5.23;4.83;;;23.20;26.40;;;;;;2612032;54;20359;-77
2022/07/26 15:47:18;;;;;;;5.40;5.10;;;22.50;24.40;;;;;;2613999;54;20154;-77
2022/07/26 15:53:06;;;;;;;5.13;4.83;;;23.10;24.70;;;;;;2613792;54;20255;-77
2022/07/26 15:58:53;;;;;;;4.57;4.37;;;22.00;26.60;;;;;;2613958;54;20130;-77
2022/07/26 16:04:41;;;;;;;5.47;5.03;;;22.20;29.10;;;;;;2613499;54;20227;-77
2022/07/26 16:10:29;;;;;;;6.73;5.23;;;21.80;35.00;;;;;;2613499;54;20147;-75
2022/07/26 16:16:17;;;;;;;6.50;5.17;;;21.40;45.70;;;;;;2613898;39;20629;-76
2022/07/26 16:19:34;;;;;;;4.93;4.50;;;21.80;51.30;;;;;;2613300;54;20398;-76
2022/07/26 16:21:59;;;;;;;4.40;4.20;;;21.80;48.80;;;;;;2614019;54;20245;-74
2022/07/26 16:27:48;;;;;;;5.60;5.10;;;21.70;54.70;;;;;;2614785;54;20143;-77
2022/07/26 16:33:35;;;;;;;4.93;4.60;;;21.60;58.90;;;;;;2614368;54;20402;-77
2022/07/26 16:39:23;;;;;;;5.40;5.00;;;21.70;66.00;;;;;;2612493;54;20122;-77
2022/07/26 16:45:11;;;;;;;5.93;5.37;;;21.60;68.80;;;;;;2614796;54;20134;-78
2022/07/26 16:50:59;;;;;;;5.03;4.63;;;20.40;91.40;;;;;;2614369;54;20182;-76
2022/07/26 16:56:46;;;;;;;5.90;5.27;;;20.00;97.30;;;;;;2614018;54;20591;-75
2022/07/26 17:02:35;;;;;;;8.17;5.10;;;19.70;99.90;;;;;;2613919;54;20139;-78
2022/07/26 17:08:24;;;;;;;5.30;5.00;;;19.70;98.50;;;;;;2613672;39;20765;-79
2022/07/26 17:14:14;;;;;;;5.43;4.70;;;19.90;97.70;;;;;;2614202;39;20736;-80
2022/07/26 17:24:08;;;;;;;4.70;4.30;;;19.80;99.90;;;;;;2614472;54;20465;-79
2022/07/26 17:27:11;;;;;;;5.13;4.63;;;19.90;97.80;;;;;;2614131;54;20428;-80
2022/07/26 17:29:36;;;;;;;5.10;4.60;;;20.00;97.30;;;;;;2612961;47;20534;-80
2022/07/26 17:35:24;;;;;;;5.43;4.90;;;19.90;99.90;;;;;;2614764;54;20156;-78
2022/07/26 17:41:12;;;;;;;10.33;4.90;;;19.80;98.60;;;;;;2614371;54;20129;-80
2022/07/26 17:47:00;;;;;;;12.13;5.30;;;19.70;99.90;;;;;;2613995;54;20153;-80
2022/07/26 17:52:49;;;;;;;5.23;4.83;;;19.70;99.90;;;;;;2613603;54;20122;-79
2022/07/26 17:58:37;;;;;;;6.47;5.20;;;19.80;99.90;;;;;;2615673;39;21035;-78
2022/07/26 18:04:25;;;;;;;6.60;5.17;;;19.70;99.90;;;;;;2615164;39;21057;-79
2022/07/26 18:10:13;;;;;;;10.07;5.20;;;19.70;99.70;;;;;;2614772;54;20126;-78
2022/07/26 18:16:01;;;;;;;10.53;5.83;;;19.80;99.90;;;;;;2614948;54;20150;-79
2022/07/26 18:21:50;;;;;;;8.00;5.30;;;19.70;99.90;;;;;;2613670;54;20130;-80
2022/07/26 18:31:00;;;;;;;6.17;4.30;;;19.40;99.60;;;;;;2614322;39;21350;-80
2022/07/26 18:33:26;;;;;;;6.37;4.57;;;19.20;96.50;;;;;;2613239;54;20434;-77
2022/07/26 18:39:13;;;;;;;5.90;5.17;;;19.20;99.90;;;;;;2614160;54;20143;-80
2022/07/26 18:45:01;;;;;;;5.30;4.90;;;19.20;99.10;;;;;;2614891;54;20213;-79
2022/07/26 18:50:51;;;;;;;5.67;5.17;;;19.10;99.90;;;;;;2613431;54;20897;-80
2022/07/26 18:56:39;;;;;;;10.60;5.33;;;19.10;99.90;;;;;;2615393;54;20373;-78
2022/07/26 19:02:27;;;;;;;5.23;4.73;;;19.10;98.20;;;;;;2614775;54;20417;-78
2022/07/26 19:08:15;;;;;;;7.33;4.87;;;19.10;99.20;;;;;;2616226;39;20548;-77
2022/07/26 19:14:03;;;;;;;6.27;5.33;;;18.90;99.90;;;;;;2616260;39;20528;-78
2022/07/26 19:19:51;;;;;;;9.40;5.03;;;18.90;99.90;;;;;;2615135;54;20138;-78
2022/07/26 19:25:39;;;;;;;8.00;5.40;;;18.90;98.00;;;;;;2614522;54;20483;-79
2022/07/26 19:31:27;;;;;;;10.10;5.43;;;18.90;93.50;;;;;;2615015;54;20437;-78
2022/07/26 19:34:42;;;;;;;7.50;5.43;;;18.80;90.30;;;;;;2609986;54;20517;-77
2022/07/26 19:40:29;;;;;;;8.43;5.27;;;18.80;85.50;;;;;;2615188;54;20394;-77
2022/07/26 19:46:17;;;;;;;8.13;5.40;;;18.70;77.40;;;;;;2612755;54;20165;-78
2022/07/26 19:52:05;;;;;;;5.43;4.80;;;18.60;76.50;;;;;;2614313;54;20469;-76
2022/07/26 19:57:53;;;;;;;7.33;5.60;;;18.50;91.20;;;;;;2614106;54;21093;-77
2022/07/26 20:03:41;;;;;;;6.73;5.53;;;18.30;93.30;;;;;;2614849;54;20138;-81
2022/07/26 20:09:28;;;;;;;6.37;5.30;;;18.00;99.00;;;;;;2612644;54;20125;-78
2022/07/26 20:15:17;;;;;;;7.63;5.53;;;17.90;99.90;;;;;;2611329;54;20154;-78
2022/07/26 20:21:05;;;;;;;5.37;4.97;;;17.90;94.00;;;;;;2613904;54;20363;-77
2022/07/26 20:26:52;;;;;;;5.43;4.90;;;17.90;90.20;;;;;;2614009;54;20405;-77
2022/07/26 20:32:55;;;;;;;5.20;4.73;;;17.90;86.30;;;;;;2612148;54;20165;-78
2022/07/26 20:38:43;;;;;;;8.93;5.70;;;17.90;81.50;;;;;;2612809;39;20519;-78
2022/07/26 20:44:30;;;;;;;5.60;5.13;;;17.80;77.60;;;;;;2612728;54;20112;-78
2022/07/26 20:50:17;;;;;;;5.53;5.13;;;17.80;78.90;;;;;;2612288;39;20638;-78
2022/07/26 20:56:04;;;;;;;12.47;5.00;;;17.70;68.50;;;;;;2612347;54;20225;-77
2022/07/26 21:01:51;;;;;;;5.80;5.20;;;17.50;61.70;;;;;;2613343;54;20131;-77
2022/07/26 21:07:40;;;;;;;5.03;4.63;;;17.50;61.40;;;;;;2612808;54;20154;-78
2022/07/26 21:13:27;;;;;;;5.67;4.80;;;17.40;61.50;;;;;;2614624;54;20380;-77
2022/07/26 21:19:15;;;;;;;5.83;5.20;;;17.30;60.90;;;;;;2614721;54;20132;-76
2022/07/26 21:25:04;;;;;;;4.70;4.40;;;17.20;59.70;;;;;;2614748;39;20546;-76
2022/07/26 21:34:44;;;;;;;5.20;4.70;;;17.10;57.80;;;;;;2615058;54;20412;-77
2022/07/26 21:40:33;;;;;;;6.80;4.23;;;16.90;57.50;;;;;;2613633;54;20426;-78
2022/07/26 21:46:21;;;;;;;7.27;5.03;;;16.90;56.30;;;;;;2615153;54;20392;-77
2022/07/26 21:52:09;;;;;;;6.43;4.57;;;16.80;54.20;;;;;;2615143;54;20164;-77
2022/07/26 21:57:56;;;;;;;5.53;5.00;;;16.80;48.00;;;;;;2614331;54;20131;-78
2022/07/26 22:03:44;;;;;;;5.27;4.87;;;16.70;50.00;;;;;;2616006;54;20179;-78
2022/07/26 22:09:32;;;;;;;5.93;5.17;;;16.70;51.80;;;;;;2615597;54;20153;-78
2022/07/26 22:15:20;;;;;;;7.30;5.07;;;16.60;54.50;;;;;;2615251;54;20155;-78
2022/07/26 22:21:08;;;;;;;5.57;5.10;;;16.60;56.70;;;;;;2614625;54;20435;-78
2022/07/26 22:26:56;;;;;;;7.70;5.40;;;16.50;57.80;;;;;;2615679;54;20156;-77
2022/07/26 22:32:57;;;;;;;9.17;5.30;;;16.50;62.60;;;;;;2613800;54;20147;-77
2022/07/26 22:38:45;;;;;;;5.00;4.43;;;16.50;64.40;;;;;;2613302;54;20404;-78
2022/07/26 22:44:33;;;;;;;4.93;4.53;;;16.50;68.90;;;;;;2613949;54;20421;-77
2022/07/26 22:50:21;;;;;;;5.80;5.30;;;16.40;74.20;;;;;;2613431;54;20418;-77
2022/07/26 22:56:08;;;;;;;7.73;5.27;;;16.20;77.20;;;;;;2613476;54;20427;-77
2022/07/26 23:01:55;;;;;;;5.30;5.00;;;16.10;83.40;;;;;;2612948;54;20172;-77
2022/07/26 23:07:42;;;;;;;6.67;5.00;;;16.00;87.00;;;;;;2614263;54;20359;-77
2022/07/26 23:13:30;;;;;;;7.50;4.90;;;15.90;91.00;;;;;;2614833;54;20681;-77
2022/07/26 23:19:18;;;;;;;5.37;4.73;;;15.90;91.80;;;;;;2616278;39;20520;-77
2022/07/26 23:25:06;;;;;;;7.40;5.70;;;15.90;94.20;;;;;;2614612;54;20135;-77
2022/07/26 23:28:09;;;;;;;5.37;4.90;;;15.70;95.80;;;;;;2615302;54;20520;-77
2022/07/26 23:34:44;;;;;;;5.73;5.10;;;15.60;98.50;;;;;;2614622;54;22700;-77
2022/07/26 23:40:32;;;;;;;5.70;5.30;;;15.40;99.90;;;;;;2615406;54;20452;-78
2022/07/26 23:46:20;;;;;;;5.97;5.40;;;15.20;99.90;;;;;;2614026;54;20182;-78
2022/07/26 23:52:08;;;;;;;7.70;4.90;;;15.00;99.90;;;;;;2615284;54;20402;-77
2022/07/26 23:57:56;;;;;;;5.37;4.87;;;14.90;99.90;;;;;;2614473;54;20232;-76
